Groveton, Texas
Current Conditions -  °F | °C
As of 3:15 PM on Monday 22 Dec 2014 (Local Time) from KDKR Reporting Station
Clear Clear  
Wind Chill: 72°   Ceiling: Unl
Heat Index: 72°   Visibility: NA
Dew Point: 57°   Wind: 12mph
Humidity: 60%   Direction: 220°SW
Pressure: 29.61"   Gusts: NA
Location:  31.05°N, 95.13°W
Report Text: KDKR 222115Z AUTO 22010KT CLR 22/14 A2961 RMK AO2
Loading
Personal Weather Stations






























Interactive Weather Map New forecast layout! Learn more

10-Day Weather Forecast

Advertisements
Track Severe Weather on mobile